createdAt,value
2023-01-17T00:02:19.703Z,76.78
2023-01-17T00:05:06.730Z,76.74
2023-01-17T00:07:53.517Z,76.46
2023-01-17T00:10:24.770Z,76.38
2023-01-17T00:13:01.021Z,76.46
2023-01-17T00:15:30.906Z,76.51
2023-01-17T00:17:59.833Z,76.34
2023-01-17T00:20:49.716Z,76.37
2023-01-17T00:23:39.405Z,76.03
2023-01-17T00:26:13.331Z,76.23
2023-01-17T00:28:43.059Z,76.12
2023-01-17T00:31:12.992Z,76.08
2023-01-17T00:33:41.119Z,76.17
2023-01-17T00:36:10.219Z,76.14
2023-01-17T00:38:39.492Z,76.14
2023-01-17T00:41:15.057Z,76.13
2023-01-17T00:44:01.379Z,76.24
2023-01-17T00:46:48.195Z,76.23
2023-01-17T00:49:35.017Z,76.34
2023-01-17T00:52:21.528Z,76.26
2023-01-17T00:55:08.366Z,76.47
2023-01-17T00:57:54.996Z,76.42
2023-01-17T01:00:42.230Z,76.29
2023-01-17T01:03:30.283Z,76.24
2023-01-17T01:06:17.361Z,76.34
2023-01-17T01:09:04.080Z,76.24
2023-01-17T01:11:50.455Z,76.26
2023-01-17T01:14:37.167Z,76.45
2023-01-17T01:17:24.154Z,76.56
2023-01-17T01:20:10.792Z,76.59
2023-01-17T01:22:57.091Z,76.67
2023-01-17T01:25:43.580Z,76.54
2023-01-17T01:28:32.483Z,76.70
2023-01-17T01:31:21.183Z,76.82
2023-01-17T01:33:51.848Z,76.77
2023-01-17T01:36:20.524Z,76.86
2023-01-17T01:38:50.413Z,77.02
2023-01-17T01:41:18.611Z,77.01
2023-01-17T01:43:58.745Z,76.98
2023-01-17T01:46:29.789Z,76.99
2023-01-17T01:49:12.922Z,77.29
2023-01-17T01:51:49.272Z,77.62
2023-01-17T01:54:22.531Z,77.56
2023-01-17T01:56:54.332Z,77.71
2023-01-17T01:59:23.131Z,78.14
2023-01-17T02:01:53.416Z,78.31
2023-01-17T02:04:22.751Z,78.62
2023-01-17T02:07:03.999Z,78.71
2023-01-17T02:09:32.129Z,78.87
2023-01-17T02:12:00.523Z,78.81
2023-01-17T02:14:28.844Z,78.69
2023-01-17T02:17:02.868Z,78.85
2023-01-17T02:20:08.398Z,79.30
2023-01-17T02:22:59.821Z,79.57
2023-01-17T02:25:57.658Z,79.76
2023-01-17T02:28:43.676Z,80.24
2023-01-17T02:31:20.785Z,80.32
2023-01-17T02:34:07.159Z,80.23
2023-01-17T02:37:11.894Z,80.35
2023-01-17T02:39:46.678Z,80.52
2023-01-17T02:42:18.108Z,80.44
2023-01-17T02:44:46.035Z,80.55
2023-01-17T02:47:21.114Z,80.21
2023-01-17T02:49:49.419Z,80.10
2023-01-17T02:52:36.052Z,79.98
2023-01-17T02:55:06.922Z,79.88
2023-01-17T02:57:46.919Z,80.17
2023-01-17T03:00:27.555Z,80.17
2023-01-17T03:02:58.546Z,80.17
2023-01-17T03:05:34.292Z,80.20
2023-01-17T03:08:03.182Z,79.95
2023-01-17T03:10:34.273Z,79.79
2023-01-17T03:13:03.654Z,79.84
2023-01-17T03:15:31.896Z,79.71
2023-01-17T03:18:04.226Z,79.44
2023-01-17T03:20:32.235Z,79.68
2023-01-17T03:23:00.308Z,79.57
2023-01-17T03:25:28.254Z,79.52
2023-01-17T03:27:56.264Z,79.57
2023-01-17T03:30:24.729Z,79.25
2023-01-17T03:32:52.827Z,79.19
2023-01-17T03:35:21.129Z,79.10
2023-01-17T03:37:49.242Z,78.77
2023-01-17T03:40:17.491Z,78.76
2023-01-17T03:42:45.691Z,78.42
2023-01-17T03:45:14.326Z,78.44
2023-01-17T03:47:42.652Z,78.42
2023-01-17T03:50:12.033Z,78.68
2023-01-17T03:52:40.122Z,78.53
2023-01-17T03:55:08.504Z,78.45
2023-01-17T03:57:36.613Z,78.18
2023-01-17T04:00:05.098Z,78.02
2023-01-17T04:02:35.000Z,77.58
2023-01-17T04:05:03.546Z,77.78
2023-01-17T04:07:31.625Z,77.81
2023-01-17T04:09:59.588Z,77.76
2023-01-17T04:12:27.656Z,77.75
2023-01-17T04:14:55.605Z,77.77
2023-01-17T04:17:23.799Z,77.63
2023-01-17T04:19:51.969Z,77.50
2023-01-17T04:22:19.921Z,77.50
2023-01-17T04:24:47.845Z,77.44
2023-01-17T04:27:16.159Z,77.56
2023-01-17T04:29:46.572Z,77.26
2023-01-17T04:32:14.994Z,77.36
2023-01-17T04:34:43.005Z,77.28
2023-01-17T04:37:10.981Z,77.14
2023-01-17T04:39:38.991Z,77.22
2023-01-17T04:42:07.101Z,77.10
2023-01-17T04:44:35.140Z,77.25
2023-01-17T04:47:03.460Z,77.20
2023-01-17T04:49:31.511Z,77.44
2023-01-17T04:51:59.716Z,77.59
2023-01-17T04:54:27.830Z,77.89
2023-01-17T04:56:55.757Z,78.06
2023-01-17T04:59:23.755Z,78.21
2023-01-17T05:01:51.752Z,78.09
2023-01-17T05:04:19.713Z,78.19
2023-01-17T05:06:47.656Z,78.51
2023-01-17T05:09:15.649Z,78.70
2023-01-17T05:11:43.820Z,78.94
2023-01-17T05:14:11.817Z,79.24
2023-01-17T05:16:39.726Z,79.76
2023-01-17T05:19:07.799Z,79.99
2023-01-17T05:21:35.780Z,79.94
2023-01-17T05:24:04.292Z,79.66
2023-01-17T05:26:32.325Z,79.65
2023-01-17T05:29:00.313Z,79.61
2023-01-17T05:31:28.378Z,79.88
2023-01-17T05:33:56.337Z,79.55
2023-01-17T05:36:24.304Z,79.67
2023-01-17T05:38:52.310Z,79.51
2023-01-17T05:41:20.348Z,79.52
2023-01-17T05:43:48.296Z,79.51
2023-01-17T05:46:18.166Z,79.69
2023-01-17T05:48:46.165Z,79.69
2023-01-17T05:51:14.223Z,79.93
2023-01-17T05:53:42.236Z,80.06
2023-01-17T05:56:10.219Z,80.23
2023-01-17T05:58:40.427Z,80.45
2023-01-17T06:01:08.476Z,80.84
2023-01-17T06:03:36.428Z,80.80
2023-01-17T06:06:04.594Z,80.95
2023-01-17T06:08:32.609Z,80.83
2023-01-17T06:11:00.565Z,80.80
2023-01-17T06:13:28.745Z,80.81
2023-01-17T06:16:02.835Z,80.75
2023-01-17T06:18:31.963Z,80.98
2023-01-17T06:20:59.920Z,81.25
2023-01-17T06:23:28.529Z,81.26
2023-01-17T06:25:56.762Z,81.46
2023-01-17T06:28:24.766Z,81.76
2023-01-17T06:30:52.819Z,81.45
2023-01-17T06:33:20.778Z,81.57
2023-01-17T06:35:50.498Z,81.73
2023-01-17T06:38:19.170Z,81.59
2023-01-17T06:40:47.347Z,81.95
2023-01-17T06:43:16.147Z,82.02
2023-01-17T06:45:44.217Z,82.46
2023-01-17T06:48:12.184Z,82.30
2023-01-17T06:50:40.250Z,82.09
2023-01-17T06:53:08.322Z,82.19
2023-01-17T06:55:40.393Z,82.04
2023-01-17T06:58:08.969Z,81.82
2023-01-17T07:00:39.572Z,81.71
2023-01-17T07:03:22.538Z,81.81
2023-01-17T07:05:51.299Z,81.61
2023-01-17T07:08:20.092Z,81.85
2023-01-17T07:10:48.973Z,81.77
2023-01-17T07:13:17.082Z,81.79
2023-01-17T07:15:45.084Z,82.04
2023-01-17T07:18:13.104Z,81.79
2023-01-17T07:20:44.021Z,81.83
2023-01-17T07:23:12.812Z,82.19
2023-01-17T07:25:40.904Z,82.37
2023-01-17T07:28:09.385Z,82.17
2023-01-17T07:30:37.381Z,82.24
2023-01-17T07:33:05.589Z,82.15
2023-01-17T07:35:34.185Z,82.09
2023-01-17T07:38:02.659Z,82.36
2023-01-17T07:40:31.179Z,82.11
2023-01-17T07:43:04.026Z,82.18
2023-01-17T07:45:32.573Z,82.15
2023-01-17T07:48:00.551Z,82.19
2023-01-17T07:50:28.523Z,82.13
2023-01-17T07:52:56.561Z,82.02
2023-01-17T07:55:24.685Z,82.17
2023-01-17T07:57:52.763Z,82.28
2023-01-17T08:00:23.165Z,82.40
2023-01-17T08:02:56.355Z,82.41
2023-01-17T08:05:25.675Z,82.33
2023-01-17T08:07:54.153Z,82.40
2023-01-17T08:10:22.835Z,82.37
2023-01-17T08:12:51.011Z,82.44
2023-01-17T08:15:19.074Z,82.28
2023-01-17T08:17:49.143Z,82.15
2023-01-17T08:20:17.206Z,82.28
2023-01-17T08:22:45.553Z,82.08
2023-01-17T08:25:13.949Z,82.18
2023-01-17T08:27:42.005Z,82.14
2023-01-17T08:30:10.742Z,82.21
2023-01-17T08:32:41.629Z,81.99
2023-01-17T08:35:10.287Z,81.85
2023-01-17T08:37:39.232Z,81.90
2023-01-17T08:40:08.893Z,81.56
2023-01-17T08:42:39.903Z,81.51
2023-01-17T08:45:10.172Z,81.48
2023-01-17T08:47:38.742Z,81.43
2023-01-17T08:50:07.262Z,81.20
2023-01-17T08:52:36.224Z,81.23
2023-01-17T08:55:06.060Z,80.97
2023-01-17T08:57:34.096Z,80.96
2023-01-17T09:00:02.370Z,80.63
2023-01-17T09:02:30.381Z,80.46
2023-01-17T09:04:58.367Z,80.48
2023-01-17T09:07:27.120Z,80.30
2023-01-17T09:09:55.223Z,80.14
2023-01-17T09:12:23.645Z,80.08
2023-01-17T09:14:51.674Z,80.03
2023-01-17T09:17:19.701Z,80.01
2023-01-17T09:19:48.899Z,79.68
2023-01-17T09:22:16.951Z,79.55
2023-01-17T09:24:45.029Z,79.16
2023-01-17T09:27:13.093Z,78.84
2023-01-17T09:29:41.083Z,79.07
2023-01-17T09:32:09.143Z,78.80
2023-01-17T09:34:37.105Z,78.60
2023-01-17T09:37:05.126Z,78.51
2023-01-17T09:39:33.124Z,78.30
2023-01-17T09:42:19.777Z,78.13
2023-01-17T09:44:52.875Z,78.08
2023-01-17T09:47:39.540Z,77.75
2023-01-17T09:50:29.633Z,77.37
2023-01-17T09:53:16.341Z,77.16
2023-01-17T09:55:53.827Z,76.71
2023-01-17T09:58:42.120Z,76.62
2023-01-17T10:01:22.272Z,76.55
2023-01-17T10:03:59.337Z,76.56
2023-01-17T10:06:43.296Z,76.37
2023-01-17T10:09:32.607Z,76.28
2023-01-17T10:12:24.568Z,76.21
2023-01-17T10:15:14.127Z,75.75
2023-01-17T10:17:48.414Z,75.67
2023-01-17T10:20:25.907Z,75.25
2023-01-17T10:23:15.570Z,75.38
2023-01-17T10:25:54.731Z,75.23
2023-01-17T10:28:31.714Z,75.32
2023-01-17T10:31:08.206Z,75.07
2023-01-17T10:33:39.649Z,75.18
2023-01-17T10:36:30.443Z,75.22
2023-01-17T10:39:15.356Z,75.05
2023-01-17T10:41:46.473Z,74.85
2023-01-17T10:44:37.466Z,74.92
2023-01-17T10:47:23.476Z,74.79
2023-01-17T10:49:53.810Z,74.65
2023-01-17T10:52:27.413Z,74.35
2023-01-17T10:54:56.585Z,74.50
2023-01-17T10:57:27.154Z,74.10
2023-01-17T11:00:01.241Z,73.94
2023-01-17T11:02:36.022Z,73.23
2023-01-17T11:05:19.562Z,72.96
2023-01-17T11:08:08.660Z,72.95
2023-01-17T11:10:36.925Z,72.85
2023-01-17T11:13:07.543Z,72.81
2023-01-17T11:15:39.968Z,72.49
2023-01-17T11:18:16.336Z,72.49
2023-01-17T11:20:45.092Z,72.24
2023-01-17T11:23:16.081Z,71.72
2023-01-17T11:25:55.300Z,71.68
2023-01-17T11:28:30.714Z,71.39
2023-01-17T11:31:00.479Z,71.42
2023-01-17T11:33:55.979Z,71.09
2023-01-17T11:36:29.113Z,71.17
2023-01-17T11:39:04.378Z,71.12
2023-01-17T11:41:40.623Z,71.36
2023-01-17T11:44:23.737Z,71.10
2023-01-17T11:47:07.297Z,71.21
2023-01-17T11:49:35.727Z,71.19
2023-01-17T11:52:17.684Z,70.59
2023-01-17T11:54:48.141Z,70.28
2023-01-17T11:57:29.212Z,69.96
2023-01-17T12:00:11.989Z,70.15
2023-01-17T12:02:58.836Z,70.10
2023-01-17T12:05:58.147Z,70.35
2023-01-17T12:09:23.030Z,70.88
2023-01-17T12:12:09.814Z,71.12
2023-01-17T12:14:52.282Z,71.49
2023-01-17T12:17:32.040Z,71.67
2023-01-17T12:20:05.270Z,71.58
2023-01-17T12:22:48.011Z,71.80
2023-01-17T12:25:21.611Z,71.50
2023-01-17T12:27:52.485Z,71.45
2023-01-17T12:30:57.397Z,71.50
2023-01-17T12:33:52.793Z,71.50
2023-01-17T12:36:26.665Z,71.80
2023-01-17T12:38:56.719Z,71.67
2023-01-17T12:41:45.670Z,71.60
2023-01-17T12:44:18.680Z,71.62
2023-01-17T12:47:02.665Z,71.51
2023-01-17T12:49:41.835Z,71.49
2023-01-17T12:52:20.979Z,71.54
2023-01-17T12:54:55.687Z,71.27
2023-01-17T12:57:32.050Z,71.16
2023-01-17T13:00:07.105Z,70.95
2023-01-17T13:02:37.957Z,71.03
2023-01-17T13:05:15.431Z,71.29
2023-01-17T13:07:49.747Z,71.34
2023-01-17T13:10:48.220Z,71.00
2023-01-17T13:13:22.499Z,70.99
2023-01-17T13:15:55.549Z,70.82
2023-01-17T13:18:29.911Z,71.01
2023-01-17T13:21:27.184Z,71.13
2023-01-17T13:24:06.015Z,70.91
2023-01-17T13:27:01.251Z,70.86
2023-01-17T13:29:54.272Z,71.22
2023-01-17T13:32:45.900Z,71.27
2023-01-17T13:35:17.318Z,71.24
2023-01-17T13:37:56.911Z,71.14
2023-01-17T13:40:46.698Z,71.22
2023-01-17T13:43:40.152Z,71.09
2023-01-17T13:46:08.468Z,71.03
2023-01-17T13:48:41.119Z,70.84
2023-01-17T13:51:10.828Z,70.87
2023-01-17T13:53:38.737Z,70.73
2023-01-17T13:56:14.415Z,70.71
2023-01-17T13:58:47.240Z,70.81
2023-01-17T14:01:15.880Z,70.88
2023-01-17T14:03:46.623Z,70.78
2023-01-17T14:06:36.361Z,70.68
2023-01-17T14:09:16.552Z,70.66
2023-01-17T14:12:05.363Z,70.76
2023-01-17T14:14:45.049Z,70.75
2023-01-17T14:17:20.697Z,70.96
2023-01-17T14:19:52.048Z,70.79
2023-01-17T14:22:20.235Z,70.88
2023-01-17T14:25:10.146Z,70.87
2023-01-17T14:27:51.746Z,70.84
2023-01-17T14:30:25.963Z,70.82
2023-01-17T14:33:06.039Z,70.91
2023-01-17T14:35:37.101Z,70.77
2023-01-17T14:38:26.748Z,70.68
2023-01-17T14:40:56.480Z,70.70
2023-01-17T14:43:28.755Z,70.72
2023-01-17T14:45:59.110Z,70.58
2023-01-17T14:48:28.979Z,70.65
2023-01-17T14:51:00.197Z,70.63
2023-01-17T14:53:30.812Z,70.60
2023-01-17T14:56:12.593Z,70.45
2023-01-17T14:58:41.577Z,70.54
2023-01-17T15:01:15.535Z,70.57
2023-01-17T15:03:50.298Z,70.26
2023-01-17T15:06:18.343Z,70.36
2023-01-17T15:08:47.643Z,70.32
2023-01-17T15:11:23.187Z,70.20
2023-01-17T15:13:55.160Z,70.19
2023-01-17T15:16:34.182Z,70.18
2023-01-17T15:19:03.568Z,70.04
2023-01-17T15:21:37.024Z,70.13
2023-01-17T15:24:08.755Z,70.09
2023-01-17T15:26:40.942Z,70.12
2023-01-17T15:29:19.384Z,70.33
2023-01-17T15:31:49.981Z,70.18
2023-01-17T15:34:27.836Z,70.20
2023-01-17T15:37:00.834Z,70.09
2023-01-17T15:39:33.194Z,69.98
2023-01-17T15:42:06.005Z,70.10
2023-01-17T15:44:47.393Z,70.10
2023-01-17T15:47:28.333Z,70.34
2023-01-17T15:49:57.369Z,70.47
2023-01-17T15:52:25.698Z,70.55
2023-01-17T15:55:00.942Z,70.27
2023-01-17T15:57:39.043Z,70.49
2023-01-17T16:00:20.845Z,70.65
2023-01-17T16:02:55.533Z,70.82
2023-01-17T16:05:24.257Z,70.93
2023-01-17T16:07:53.860Z,70.88
2023-01-17T16:10:28.863Z,70.77
2023-01-17T16:12:56.964Z,71.07
2023-01-17T16:15:29.074Z,71.08
2023-01-17T16:18:07.750Z,71.03
2023-01-17T16:20:44.526Z,71.05
2023-01-17T16:23:13.147Z,71.09
2023-01-17T16:25:41.320Z,71.04
2023-01-17T16:28:09.342Z,71.19
2023-01-17T16:30:38.055Z,71.08
2023-01-17T16:33:06.133Z,71.08
2023-01-17T16:35:34.686Z,71.26
2023-01-17T16:38:05.463Z,71.39
2023-01-17T16:40:40.162Z,71.31
2023-01-17T16:43:08.310Z,71.36
2023-01-17T16:45:41.695Z,71.37
2023-01-17T16:48:12.666Z,71.33
2023-01-17T16:50:42.464Z,71.38
2023-01-17T16:53:10.400Z,71.38
2023-01-17T16:55:42.105Z,71.28
2023-01-17T16:58:10.734Z,71.00
2023-01-17T17:00:40.502Z,71.02
2023-01-17T17:03:19.926Z,70.92
2023-01-17T17:05:56.794Z,70.87
2023-01-17T17:08:25.067Z,71.07
2023-01-17T17:10:53.058Z,71.09
2023-01-17T17:13:21.327Z,70.92
2023-01-17T17:15:49.610Z,70.84
2023-01-17T17:18:18.104Z,70.64
2023-01-17T17:20:46.131Z,70.52
2023-01-17T17:23:14.200Z,70.60
2023-01-17T17:25:42.212Z,70.57
2023-01-17T17:28:10.836Z,70.10
2023-01-17T17:30:38.927Z,69.61
2023-01-17T17:33:06.998Z,69.93
2023-01-17T17:35:35.177Z,70.72
2023-01-17T17:38:05.711Z,71.10
2023-01-17T17:40:37.919Z,71.69
2023-01-17T17:43:07.058Z,72.16
2023-01-17T17:45:35.270Z,72.40
2023-01-17T17:48:03.507Z,72.04
2023-01-17T17:50:31.577Z,71.70
2023-01-17T17:52:59.513Z,71.57
2023-01-17T17:55:28.741Z,71.15
2023-01-17T17:57:57.264Z,71.33
2023-01-17T18:00:25.409Z,71.52
2023-01-17T18:02:53.467Z,71.75
2023-01-17T18:05:21.539Z,71.80
2023-01-17T18:07:51.042Z,72.04
2023-01-17T18:10:19.699Z,72.31
2023-01-17T18:12:47.812Z,72.46
2023-01-17T18:15:15.973Z,72.62
2023-01-17T18:17:44.192Z,72.97
2023-01-17T18:20:12.388Z,73.18
2023-01-17T18:22:41.982Z,73.39
2023-01-17T18:25:11.693Z,73.61
2023-01-17T18:27:40.621Z,73.69
2023-01-17T18:30:09.520Z,73.80
2023-01-17T18:32:38.299Z,73.68
2023-01-17T18:35:06.919Z,73.76
2023-01-17T18:37:35.120Z,73.79
2023-01-17T18:40:03.229Z,74.00
2023-01-17T18:42:31.403Z,73.82
2023-01-17T18:44:59.497Z,73.95
2023-01-17T18:47:29.370Z,74.17
2023-01-17T18:49:57.376Z,73.93
2023-01-17T18:52:25.420Z,74.02
2023-01-17T18:54:53.390Z,73.88
2023-01-17T18:57:21.465Z,73.24
2023-01-17T18:59:49.428Z,72.74
2023-01-17T19:02:18.217Z,71.76
2023-01-17T19:04:46.405Z,71.46
2023-01-17T19:07:14.566Z,71.22
2023-01-17T19:09:44.272Z,71.11
2023-01-17T19:12:12.237Z,70.87
2023-01-17T19:14:40.318Z,70.43
2023-01-17T19:17:08.378Z,69.96
2023-01-17T19:19:36.350Z,69.35
2023-01-17T19:22:04.371Z,68.96
2023-01-17T19:24:32.467Z,68.43
2023-01-17T19:27:00.457Z,68.06
2023-01-17T19:29:28.936Z,67.88
2023-01-17T19:31:57.159Z,67.75
2023-01-17T19:34:25.490Z,67.62
2023-01-17T19:36:55.513Z,67.57
2023-01-17T19:39:25.633Z,67.37
2023-01-17T19:41:53.798Z,67.22
2023-01-17T19:44:21.884Z,67.15
2023-01-17T19:46:50.041Z,67.58
2023-01-17T19:49:24.030Z,67.54
2023-01-17T19:51:52.424Z,68.03
2023-01-17T19:54:20.402Z,68.26
2023-01-17T19:56:48.467Z,68.74
2023-01-17T19:59:16.903Z,68.77
2023-01-17T20:01:45.097Z,68.94
2023-01-17T20:04:13.297Z,69.05
2023-01-17T20:06:41.479Z,69.45
2023-01-17T20:09:09.951Z,69.54
2023-01-17T20:11:38.529Z,69.84
2023-01-17T20:14:06.655Z,69.77
2023-01-17T20:16:37.208Z,69.66
2023-01-17T20:19:05.813Z,69.71
2023-01-17T20:21:34.534Z,69.79
2023-01-17T20:24:03.503Z,69.43
2023-01-17T20:26:37.106Z,69.44
2023-01-17T20:29:12.846Z,69.59
2023-01-17T20:31:42.851Z,69.74
2023-01-17T20:34:13.698Z,69.89
2023-01-17T20:36:42.288Z,69.84
2023-01-17T20:39:14.105Z,69.74
2023-01-17T20:41:43.973Z,69.89
2023-01-17T20:44:15.444Z,69.96
2023-01-17T20:46:44.051Z,69.71
2023-01-17T20:49:15.546Z,69.85
2023-01-17T20:51:44.941Z,69.92
2023-01-17T20:54:18.591Z,70.12
2023-01-17T20:56:47.835Z,70.42
2023-01-17T20:59:18.797Z,70.21
2023-01-17T21:01:47.279Z,70.36
2023-01-17T21:04:15.741Z,70.46
2023-01-17T21:06:44.462Z,70.41
2023-01-17T21:09:15.054Z,70.64
2023-01-17T21:11:43.213Z,70.91
2023-01-17T21:14:11.700Z,71.09
2023-01-17T21:16:39.936Z,71.34
2023-01-17T21:19:12.094Z,71.22
2023-01-17T21:21:40.444Z,71.28
2023-01-17T21:24:08.856Z,71.40
2023-01-17T21:26:39.036Z,71.57
2023-01-17T21:29:07.487Z,71.47
2023-01-17T21:31:36.928Z,71.34
2023-01-17T21:34:07.519Z,71.65
2023-01-17T21:36:40.835Z,71.63
2023-01-17T21:39:15.851Z,71.67
2023-01-17T21:41:48.002Z,71.79
2023-01-17T21:44:20.147Z,71.41
2023-01-17T21:46:49.353Z,71.30
2023-01-17T21:49:17.396Z,71.32
2023-01-17T21:51:54.424Z,71.30
2023-01-17T21:54:44.432Z,71.56
2023-01-17T21:57:32.783Z,71.63
2023-01-17T22:00:00.972Z,71.76
2023-01-17T22:02:29.017Z,71.84
2023-01-17T22:04:57.095Z,72.11
2023-01-17T22:07:27.220Z,72.33
2023-01-17T22:09:56.922Z,72.55
2023-01-17T22:12:25.276Z,72.69
2023-01-17T22:14:53.704Z,72.87
2023-01-17T22:17:22.313Z,72.85
2023-01-17T22:19:50.412Z,72.79
2023-01-17T22:22:18.591Z,72.86
2023-01-17T22:24:47.468Z,72.55
2023-01-17T22:27:15.545Z,72.58
2023-01-17T22:29:43.611Z,72.57
2023-01-17T22:32:11.686Z,72.78
2023-01-17T22:34:39.628Z,73.05
2023-01-17T22:37:10.323Z,73.26
2023-01-17T22:39:39.453Z,73.59
2023-01-17T22:42:07.855Z,73.87
2023-01-17T22:44:36.048Z,73.89
2023-01-17T22:47:04.026Z,74.01
2023-01-17T22:49:32.069Z,74.03
2023-01-17T22:52:00.010Z,74.11
2023-01-17T22:54:28.007Z,74.08
2023-01-17T22:56:56.174Z,74.06
2023-01-17T22:59:24.257Z,74.07
2023-01-17T23:01:53.960Z,74.26
2023-01-17T23:04:22.032Z,74.15
2023-01-17T23:06:49.965Z,74.11
2023-01-17T23:09:17.991Z,74.10
2023-01-17T23:11:52.814Z,73.95
2023-01-17T23:14:52.272Z,74.25
2023-01-17T23:17:40.853Z,74.92
2023-01-17T23:20:10.593Z,75.25
2023-01-17T23:22:39.160Z,75.41
2023-01-17T23:25:11.049Z,75.66
2023-01-17T23:28:01.600Z,75.88
2023-01-17T23:30:34.854Z,75.87
2023-01-17T23:33:04.757Z,76.02
2023-01-17T23:35:41.317Z,76.04
2023-01-17T23:38:26.573Z,76.09
2023-01-17T23:41:25.379Z,76.23
2023-01-17T23:43:58.220Z,76.29
2023-01-17T23:46:27.043Z,76.14
2023-01-17T23:48:55.368Z,75.97
2023-01-17T23:51:23.516Z,75.89
2023-01-17T23:53:57.469Z,75.95
2023-01-17T23:56:25.781Z,75.75
2023-01-17T23:58:53.827Z,75.73
